logo
Rechercher aéroport 
image banner adimage banner adimage banner ad
image banner ad

CN99 - Del Mar Farms

Situé à Patterson, Canada

ICAO - CN99, IATA -

Données fournies par Airmate  

Information générale

Coordonnées: N37°32'47" W121°9'31"
Élévation : 65 feet MSL.
 
Voir autres Aéroports à California

Données opérationnelles

Special qualification required
Heure actuelle UTC:
Heure actuelle locale:
METAR: KMOD 130553Z AUTO 01003KT 10SM CLR 23/08 A2983 RMK AO2 SLP098 T02330083 10333 20233 50006
TAF: KMOD 122320Z 1300/1324 31010KT P6SM SKC
Voir NOTAMs / SUP AIP / TFR affectant cet aéroport [VIEW]
Fréquences de communication: [VIEW]

Pistes:

Identifiant RWYQFULongueur (ft)Largeur (ft)SurfaceLDA (ft)
12287334CONC
30287334CONC

Coordonnées de l'aéroport

Adresse: Patterson Canada

Vue satellite de CN99